Time;durP1;ratioP1;P1;durP2;ratioP2;P2;SDS_P1;SDS_P2;PMS_P1;PMS_P2;Temp;Humidity;BMP_temperature;BMP_pressure;BME280_temperature;BME280_humidity;BME280_pressure;Samples;Min_cycle;Max_cycle;Signal;HPM_P1;HPM_P2
2021/11/15 00:01:55;;;;;;;3.08;2.28;;;12.70;99.90;;;;;;6247302;23;20447;-78
2021/11/15 00:04:21;;;;;;;3.00;2.03;;;12.70;99.90;;;;;;6247350;23;20566;-78
2021/11/15 00:06:47;;;;;;;2.67;2.47;;;12.70;99.90;;;;;;6246806;23;20039;-78
2021/11/15 00:09:13;;;;;;;2.25;2.05;;;12.70;99.90;;;;;;6220266;23;20115;-78
2021/11/15 00:11:39;;;;;;;2.50;2.30;;;12.70;99.90;;;;;;6218215;23;20070;-78
2021/11/15 00:14:05;;;;;;;1.65;1.55;;;12.70;99.90;;;;;;6217160;23;20420;-78
2021/11/15 00:16:32;;;;;;;1.90;1.80;;;12.80;99.90;;;;;;6244058;23;20000;-78
2021/11/15 00:18:58;;;;;;;1.88;1.77;;;12.90;99.90;;;;;;6244170;23;20004;-78
2021/11/15 00:21:25;;;;;;;2.35;2.20;;;12.90;99.90;;;;;;6243582;23;20310;-78
2021/11/15 00:23:51;;;;;;;1.70;1.60;;;12.90;99.90;;;;;;6244521;23;20011;-78
2021/11/15 00:26:17;;;;;;;1.73;1.63;;;13.00;99.90;;;;;;6216793;23;20015;-79
2021/11/15 00:28:42;;;;;;;1.70;1.60;;;13.00;99.90;;;;;;6216503;23;20347;-78
2021/11/15 00:31:08;;;;;;;1.80;1.70;;;13.10;99.90;;;;;;6244084;23;20528;-78
2021/11/15 00:33:34;;;;;;;1.58;1.48;;;13.00;99.90;;;;;;6243732;23;20023;-78
2021/11/15 00:36:00;;;;;;;1.98;1.88;;;13.10;99.90;;;;;;6217108;23;20059;-77
2021/11/15 00:38:26;;;;;;;3.08;1.65;;;13.00;99.90;;;;;;6243744;23;20008;-78
2021/11/15 00:40:52;;;;;;;1.67;1.58;;;13.00;99.90;;;;;;6243491;23;20317;-78
2021/11/15 00:43:18;;;;;;;1.55;1.45;;;13.00;99.90;;;;;;6244263;23;20004;-79
2021/11/15 00:45:44;;;;;;;2.00;1.80;;;12.90;99.90;;;;;;6216697;23;20012;-78
2021/11/15 00:48:10;;;;;;;1.88;1.75;;;12.90;99.90;;;;;;6246257;23;20027;-78
2021/11/15 00:50:36;;;;;;;1.42;1.33;;;12.80;99.90;;;;;;6246894;23;20427;-78
2021/11/15 00:53:02;;;;;;;1.95;1.83;;;12.80;99.90;;;;;;6247022;23;20004;-75
2021/11/15 00:55:28;;;;;;;2.67;1.80;;;12.80;99.90;;;;;;6246865;23;20073;-75
2021/11/15 00:57:54;;;;;;;2.45;1.58;;;12.80;99.90;;;;;;6246934;23;20011;-75
2021/11/15 01:00:25;;;;;;;1.85;1.75;;;12.70;99.90;;;;;;6220037;23;20008;-75
2021/11/15 01:02:52;;;;;;;1.50;1.38;;;12.80;99.90;;;;;;6247149;23;20376;-75
2021/11/15 01:05:18;;;;;;;1.63;1.52;;;12.80;99.90;;;;;;6246589;23;20054;-75
2021/11/15 01:07:44;;;;;;;1.80;1.70;;;12.80;99.90;;;;;;6246144;23;20020;-75
2021/11/15 01:10:13;;;;;;;2.25;1.70;;;12.80;99.90;;;;;;6246597;23;20583;-75
2021/11/15 01:12:38;;;;;;;1.70;1.60;;;12.80;99.90;;;;;;6246863;23;20000;-75
2021/11/15 01:15:07;;;;;;;1.80;1.70;;;12.80;99.90;;;;;;6246398;23;20082;-75
2021/11/15 01:17:33;;;;;;;1.83;1.73;;;12.70;99.90;;;;;;6246356;23;20075;-75
2021/11/15 01:19:59;;;;;;;1.70;1.60;;;12.70;99.90;;;;;;6219699;23;20586;-75
2021/11/15 01:22:25;;;;;;;1.73;1.63;;;12.70;99.90;;;;;;6246582;23;20030;-76
2021/11/15 01:24:50;;;;;;;2.55;1.70;;;12.70;99.90;;;;;;6219588;23;20004;-75
2021/11/15 01:27:19;;;;;;;4.10;1.70;;;12.70;99.90;;;;;;6246456;23;20511;-75
2021/11/15 01:29:45;;;;;;;1.60;1.50;;;12.70;99.90;;;;;;6246411;23;20000;-76
2021/11/15 01:32:11;;;;;;;1.55;1.45;;;12.70;99.90;;;;;;6217192;23;20000;-75
2021/11/15 01:34:37;;;;;;;1.60;1.50;;;12.70;99.90;;;;;;6216806;23;20509;-75
2021/11/15 01:37:04;;;;;;;1.55;1.45;;;12.70;99.90;;;;;;6242714;23;20006;-75
2021/11/15 01:39:29;;;;;;;1.75;1.65;;;12.70;99.90;;;;;;6243372;23;20087;-75
2021/11/15 01:41:55;;;;;;;1.50;1.40;;;12.70;99.90;;;;;;6243298;23;20024;-75
2021/11/15 01:44:21;;;;;;;1.90;1.80;;;12.70;99.90;;;;;;6216216;23;20008;-75
2021/11/15 01:46:48;;;;;;;1.92;1.83;;;12.70;99.90;;;;;;6243623;23;20613;-75
2021/11/15 01:49:15;;;;;;;1.60;1.50;;;12.70;99.90;;;;;;6215830;23;20004;-75
2021/11/15 01:51:41;;;;;;;1.33;1.33;;;12.70;99.90;;;;;;6243066;23;19996;-75
2021/11/15 01:54:07;;;;;;;2.40;1.70;;;12.70;99.90;;;;;;6216014;23;20007;-75
2021/11/15 01:56:33;;;;;;;1.73;1.50;;;12.70;99.90;;;;;;6242546;23;20032;-75
2021/11/15 01:59:01;;;;;;;1.77;1.67;;;12.70;99.90;;;;;;6243373;23;20071;-75
2021/11/15 02:01:28;;;;;;;2.63;1.90;;;12.60;99.90;;;;;;6215849;23;20376;-75
2021/11/15 02:03:54;;;;;;;2.90;1.60;;;12.60;99.90;;;;;;6215623;23;20000;-75
2021/11/15 02:06:20;;;;;;;5.55;1.90;;;12.70;99.90;;;;;;6242977;23;20004;-75
2021/11/15 02:08:48;;;;;;;3.70;1.33;;;12.60;99.90;;;;;;6246075;23;20087;-75
2021/11/15 02:11:14;;;;;;;1.70;1.60;;;12.60;99.90;;;;;;6219470;23;20071;-75
2021/11/15 02:13:40;;;;;;;1.77;1.67;;;12.60;99.90;;;;;;6246015;23;20424;-75
2021/11/15 02:16:07;;;;;;;1.73;1.63;;;12.60;99.90;;;;;;6245823;23;20424;-78
2021/11/15 02:18:32;;;;;;;1.60;1.50;;;12.50;99.90;;;;;;6246103;23;20014;-75
2021/11/15 02:21:02;;;;;;;2.72;2.00;;;12.50;99.90;;;;;;6245952;23;20071;-75
2021/11/15 02:23:30;;;;;;;1.65;1.55;;;12.50;99.90;;;;;;6219583;23;20015;-75
2021/11/15 02:25:58;;;;;;;1.60;1.50;;;12.60;99.90;;;;;;6246297;23;20004;-75
2021/11/15 02:28:36;;;;;;;1.38;1.30;;;12.60;99.90;;;;;;6246198;23;20316;-75
2021/11/15 02:31:03;;;;;;;1.95;1.40;;;12.60;99.90;;;;;;6245904;23;20004;-75
2021/11/15 02:33:31;;;;;;;1.60;1.50;;;12.60;99.90;;;;;;6245822;23;19996;-75
2021/11/15 02:35:58;;;;;;;1.88;1.77;;;12.60;99.90;;;;;;6246115;23;19996;-75
2021/11/15 02:38:24;;;;;;;1.33;1.23;;;12.60;99.90;;;;;;6218948;23;20004;-75
2021/11/15 02:40:50;;;;;;;1.92;1.50;;;12.60;99.90;;;;;;6245678;23;20079;-76
2021/11/15 02:43:16;;;;;;;1.80;1.70;;;12.60;99.90;;;;;;6218795;23;20098;-75
2021/11/15 02:45:42;;;;;;;1.60;1.50;;;12.60;99.90;;;;;;6245808;23;20004;-75
2021/11/15 02:48:08;;;;;;;1.65;1.55;;;12.60;99.90;;;;;;6245865;23;20007;-75
2021/11/15 02:50:35;;;;;;;3.75;1.30;;;12.60;99.90;;;;;;6219036;23;20510;-75
2021/11/15 02:53:08;;;;;;;1.85;1.52;;;12.60;99.90;;;;;;6245568;23;20003;-75
2021/11/15 02:55:36;;;;;;;1.55;1.45;;;12.50;99.90;;;;;;6245231;23;20000;-75
2021/11/15 02:58:04;;;;;;;1.77;1.67;;;12.50;99.90;;;;;;6245725;23;20079;-75
2021/11/15 03:00:41;;;;;;;1.75;1.65;;;12.50;99.90;;;;;;6245620;23;20007;-75
2021/11/15 03:03:08;;;;;;;1.85;1.67;;;12.50;99.90;;;;;;6218663;23;20332;-75
2021/11/15 03:05:38;;;;;;;1.60;1.50;;;12.60;99.90;;;;;;6245371;23;20391;-75
2021/11/15 03:08:06;;;;;;;1.65;1.55;;;12.50;99.90;;;;;;6245179;23;20008;-75
2021/11/15 03:10:33;;;;;;;1.45;1.35;;;12.50;99.90;;;;;;6245723;23;20000;-75
2021/11/15 03:12:59;;;;;;;1.85;1.75;;;12.50;99.90;;;;;;6244783;23;20008;-75
2021/11/15 03:15:27;;;;;;;1.60;1.50;;;12.50;99.90;;;;;;6217856;23;20000;-75
2021/11/15 03:18:00;;;;;;;1.60;1.50;;;12.50;99.90;;;;;;6244585;23;20000;-75
2021/11/15 03:20:32;;;;;;;2.45;2.33;;;12.50;99.90;;;;;;6244807;23;19996;-75
2021/11/15 03:22:58;;;;;;;1.77;1.67;;;12.60;99.90;;;;;;6244751;23;19996;-75
2021/11/15 03:25:28;;;;;;;2.10;2.00;;;12.70;99.90;;;;;;6217753;23;20000;-75
2021/11/15 03:27:55;;;;;;;3.05;2.10;;;12.80;99.90;;;;;;6218049;23;20051;-75
2021/11/15 03:30:22;;;;;;;1.70;1.60;;;12.80;99.90;;;;;;6245501;23;20543;-75
2021/11/15 03:32:49;;;;;;;1.70;1.60;;;12.80;99.90;;;;;;6247653;23;20000;-75
2021/11/15 03:35:16;;;;;;;1.95;1.55;;;12.80;99.90;;;;;;6247372;23;20000;-75
2021/11/15 03:37:42;;;;;;;1.90;1.80;;;12.80;99.90;;;;;;6220579;23;20055;-75
2021/11/15 03:40:15;;;;;;;1.98;1.88;;;12.70;99.90;;;;;;6220541;23;20087;-75
2021/11/15 03:42:43;;;;;;;2.20;2.00;;;12.70;99.90;;;;;;6247478;23;20002;-75
2021/11/15 03:45:10;;;;;;;2.50;2.30;;;12.60;99.90;;;;;;6220395;23;20006;-76
2021/11/15 03:47:37;;;;;;;1.90;1.80;;;12.50;99.90;;;;;;6247130;23;20000;-75
2021/11/15 03:50:04;;;;;;;2.42;2.22;;;12.50;99.90;;;;;;6247215;23;20000;-75
2021/11/15 03:52:30;;;;;;;1.80;1.70;;;12.50;99.90;;;;;;6247318;23;20031;-75
2021/11/15 03:54:56;;;;;;;2.63;2.42;;;12.40;99.90;;;;;;6247116;23;20332;-75
2021/11/15 03:57:22;;;;;;;2.17;2.08;;;12.50;99.90;;;;;;6247117;23;20007;-75
2021/11/15 03:59:48;;;;;;;2.47;2.28;;;12.50;99.90;;;;;;6247074;23;20007;-75
2021/11/15 04:02:13;;;;;;;2.00;1.90;;;12.50;99.90;;;;;;6247440;23;20344;-75
2021/11/15 04:04:52;;;;;;;2.90;1.85;;;12.40;99.90;;;;;;6247641;23;20437;-75
2021/11/15 04:07:28;;;;;;;2.03;1.92;;;12.40;99.90;;;;;;6219902;23;20098;-75
2021/11/15 04:09:59;;;;;;;2.13;1.92;;;12.30;99.90;;;;;;6247506;23;20004;-75
2021/11/15 04:12:25;;;;;;;2.30;2.20;;;12.30;99.90;;;;;;6247156;23;20083;-75
2021/11/15 04:14:52;;;;;;;4.28;2.25;;;12.20;99.90;;;;;;6220482;23;20004;-75
2021/11/15 04:17:20;;;;;;;5.25;2.53;;;12.20;99.90;;;;;;6247366;23;20022;-75
2021/11/15 04:19:48;;;;;;;3.70;2.00;;;12.20;99.90;;;;;;6247067;23;20079;-75
2021/11/15 04:22:14;;;;;;;2.25;2.15;;;12.20;99.90;;;;;;6247236;23;20035;-75
2021/11/15 04:24:39;;;;;;;2.17;1.83;;;12.20;99.90;;;;;;6247300;23;20000;-75
2021/11/15 04:27:05;;;;;;;2.03;1.92;;;12.20;99.90;;;;;;6219989;23;20016;-75
2021/11/15 04:29:32;;;;;;;2.33;2.13;;;12.20;99.90;;;;;;6246917;23;20004;-75
2021/11/15 04:31:58;;;;;;;2.30;2.20;;;12.20;99.90;;;;;;6220305;23;20059;-75
2021/11/15 04:34:24;;;;;;;5.05;2.15;;;12.20;99.90;;;;;;6220247;23;20023;-75
2021/11/15 04:36:50;;;;;;;2.17;2.08;;;12.10;99.90;;;;;;6247050;23;20505;-75
2021/11/15 04:39:15;;;;;;;2.85;2.58;;;12.10;99.90;;;;;;6246995;23;20003;-75
2021/11/15 04:41:41;;;;;;;2.55;2.35;;;12.10;99.90;;;;;;6247027;23;20035;-75
2021/11/15 04:44:07;;;;;;;2.33;2.13;;;12.10;99.90;;;;;;6219760;23;20011;-75
2021/11/15 04:46:33;;;;;;;3.10;2.90;;;12.10;99.90;;;;;;6246970;23;20024;-75
2021/11/15 04:48:59;;;;;;;4.80;2.85;;;12.00;99.90;;;;;;6219980;23;20390;-75
2021/11/15 04:51:25;;;;;;;3.00;2.80;;;12.10;99.90;;;;;;6246748;23;20002;-75
2021/11/15 04:53:50;;;;;;;5.55;2.33;;;12.00;99.90;;;;;;6220002;23;20047;-75
2021/11/15 04:56:19;;;;;;;3.15;2.78;;;12.00;99.90;;;;;;6219569;23;20028;-75
2021/11/15 04:58:45;;;;;;;2.28;2.17;;;12.00;99.90;;;;;;6220033;23;20004;-75
2021/11/15 05:01:10;;;;;;;3.13;2.80;;;12.00;99.90;;;;;;6219886;23;20015;-75
2021/11/15 05:03:37;;;;;;;2.83;2.63;;;12.00;99.90;;;;;;6246667;23;20004;-76
2021/11/15 05:06:03;;;;;;;2.63;2.45;;;12.00;99.90;;;;;;6219743;23;20004;-75
2021/11/15 05:08:29;;;;;;;2.70;2.50;;;12.00;99.90;;;;;;6246419;23;20012;-75
2021/11/15 05:10:55;;;;;;;3.10;2.80;;;12.00;99.90;;;;;;6219711;23;20007;-75
2021/11/15 05:13:21;;;;;;;3.78;3.33;;;12.00;99.90;;;;;;6246793;23;20431;-75
2021/11/15 05:15:50;;;;;;;3.00;2.70;;;12.00;99.90;;;;;;6246655;23;20309;-75
2021/11/15 05:18:16;;;;;;;3.35;3.05;;;12.10;99.90;;;;;;6246843;23;20435;-75
2021/11/15 05:20:42;;;;;;;2.90;2.70;;;12.10;99.90;;;;;;6246627;23;20004;-75
2021/11/15 05:23:37;;;;;;;2.88;2.67;;;12.20;99.90;;;;;;6246663;23;19993;-75
2021/11/15 05:26:03;;;;;;;3.22;2.92;;;12.30;99.90;;;;;;6247373;23;20004;-75
2021/11/15 05:28:29;;;;;;;3.53;3.22;;;12.60;99.90;;;;;;6246791;23;20004;-75
2021/11/15 05:30:55;;;;;;;2.92;2.72;;;12.70;99.90;;;;;;6220302;23;20007;-75
2021/11/15 05:33:21;;;;;;;2.95;2.75;;;12.90;99.90;;;;;;6247259;23;20451;-75
2021/11/15 05:35:46;;;;;;;2.90;2.70;;;13.00;99.90;;;;;;6219609;23;20332;-74
2021/11/15 05:38:12;;;;;;;3.10;2.90;;;13.10;99.90;;;;;;6219503;23;20011;-75
2021/11/15 05:40:38;;;;;;;4.47;3.03;;;13.20;99.90;;;;;;6246312;23;20168;-75
2021/11/15 05:43:04;;;;;;;7.15;2.90;;;13.20;99.90;;;;;;6219752;23;20004;-75
2021/11/15 05:45:30;;;;;;;3.00;2.80;;;13.30;99.90;;;;;;6246392;23;20439;-75
2021/11/15 05:47:56;;;;;;;4.28;2.47;;;13.30;99.90;;;;;;6246633;23;20034;-74
2021/11/15 05:50:24;;;;;;;3.63;3.05;;;13.30;99.90;;;;;;6219648;23;20054;-75
2021/11/15 05:52:50;;;;;;;3.55;3.25;;;13.40;99.90;;;;;;6246054;23;20424;-75
2021/11/15 05:55:19;;;;;;;3.17;2.92;;;13.40;99.90;;;;;;6218821;23;20027;-75
2021/11/15 05:57:45;;;;;;;3.20;3.00;;;13.50;99.90;;;;;;6246248;23;20000;-75
2021/11/15 06:00:14;;;;;;;2.85;2.63;;;13.50;99.90;;;;;;6246091;23;20001;-75
2021/11/15 06:02:41;;;;;;;2.88;2.67;;;13.50;99.90;;;;;;6246049;23;20036;-75
2021/11/15 06:05:07;;;;;;;4.00;3.05;;;13.50;99.90;;;;;;6219080;23;20051;-75
2021/11/15 06:07:34;;;;;;;3.30;2.97;;;13.50;99.90;;;;;;6245888;23;20012;-75
2021/11/15 06:10:00;;;;;;;3.28;2.97;;;13.50;99.90;;;;;;6219032;23;20027;-74
2021/11/15 06:12:26;;;;;;;3.55;2.90;;;13.50;99.90;;;;;;6245900;23;20469;-75
2021/11/15 06:14:51;;;;;;;5.68;3.05;;;13.50;99.90;;;;;;6218732;23;20062;-75
2021/11/15 06:17:17;;;;;;;2.83;2.63;;;13.60;99.90;;;;;;6218870;23;20000;-75
2021/11/15 06:19:43;;;;;;;3.40;2.28;;;13.60;99.90;;;;;;6246026;23;20392;-75
2021/11/15 06:22:09;;;;;;;2.55;2.35;;;13.50;99.90;;;;;;6245785;23;20083;-75
2021/11/15 06:24:35;;;;;;;2.22;2.13;;;13.50;99.90;;;;;;6219128;23;20486;-75
2021/11/15 06:27:01;;;;;;;2.75;2.55;;;13.50;99.90;;;;;;6245585;23;20007;-75
2021/11/15 06:29:27;;;;;;;2.95;2.70;;;13.50;99.90;;;;;;6245374;23;20004;-75
2021/11/15 06:31:54;;;;;;;3.28;3.00;;;13.40;99.90;;;;;;6218493;23;20011;-75
2021/11/15 06:34:20;;;;;;;3.03;2.83;;;13.40;99.90;;;;;;6245487;23;20000;-75
2021/11/15 06:36:46;;;;;;;3.63;3.33;;;13.40;99.90;;;;;;6218177;23;20074;-75
2021/11/15 06:39:12;;;;;;;3.03;2.75;;;13.40;99.90;;;;;;6218172;23;20008;-74
2021/11/15 06:41:38;;;;;;;2.78;2.58;;;13.40;99.90;;;;;;6245639;23;20011;-75
2021/11/15 06:44:05;;;;;;;2.58;2.38;;;13.40;99.90;;;;;;6245773;23;20007;-75
2021/11/15 06:46:31;;;;;;;3.42;2.58;;;13.30;99.90;;;;;;6245905;23;20027;-75
2021/11/15 06:48:58;;;;;;;3.30;3.10;;;13.40;99.90;;;;;;6245796;23;20007;-75
2021/11/15 06:51:24;;;;;;;2.70;2.50;;;13.40;99.90;;;;;;6246121;23;20000;-75
2021/11/15 06:53:50;;;;;;;3.50;3.20;;;13.40;99.90;;;;;;6245777;23;20000;-75
2021/11/15 06:56:17;;;;;;;2.70;2.50;;;13.40;99.90;;;;;;6245702;23;20047;-75
2021/11/15 06:58:42;;;;;;;3.10;2.80;;;13.50;99.90;;;;;;6218738;23;20091;-75
2021/11/15 07:01:08;;;;;;;3.42;2.70;;;13.50;99.90;;;;;;6218773;23;20036;-75
2021/11/15 07:03:34;;;;;;;3.10;2.80;;;13.60;99.90;;;;;;6245266;23;20400;-74
2021/11/15 07:06:00;;;;;;;3.17;2.78;;;13.70;99.90;;;;;;6244967;23;20440;-74
2021/11/15 07:08:26;;;;;;;2.38;2.17;;;13.70;99.90;;;;;;6244895;23;20070;-74
2021/11/15 07:10:53;;;;;;;2.90;2.70;;;13.80;99.90;;;;;;6218785;23;20432;-75
2021/11/15 07:13:18;;;;;;;2.50;2.28;;;13.80;99.90;;;;;;6218561;23;20012;-75
2021/11/15 07:15:44;;;;;;;2.55;2.40;;;13.80;99.90;;;;;;6245414;23;20312;-75
2021/11/15 07:18:11;;;;;;;2.90;2.63;;;13.80;99.90;;;;;;6245845;23;20012;-75
2021/11/15 07:20:37;;;;;;;2.88;2.67;;;13.70;99.90;;;;;;6218951;23;20004;-75
2021/11/15 07:23:04;;;;;;;2.60;2.40;;;13.70;99.90;;;;;;6244740;23;20007;-74
2021/11/15 07:25:39;;;;;;;2.88;2.63;;;13.70;99.90;;;;;;6244388;23;20004;-75
2021/11/15 07:28:06;;;;;;;3.78;3.47;;;13.70;99.90;;;;;;6217634;23;20008;-75
2021/11/15 07:30:32;;;;;;;5.97;3.10;;;13.70;99.90;;;;;;6217634;23;20000;-75
2021/11/15 07:32:58;;;;;;;5.13;3.58;;;13.70;99.90;;;;;;6244658;23;20003;-75
2021/11/15 07:35:24;;;;;;;4.18;3.38;;;13.60;99.90;;;;;;6217558;23;20004;-75
2021/11/15 07:37:50;;;;;;;7.10;3.53;;;13.60;99.90;;;;;;6245468;23;19996;-75
2021/11/15 07:40:17;;;;;;;3.97;3.50;;;13.60;99.90;;;;;;6245449;23;20000;-75
2021/11/15 07:42:43;;;;;;;3.20;2.90;;;13.60;99.90;;;;;;6245393;23;19996;-76
2021/11/15 07:45:09;;;;;;;3.15;2.95;;;13.70;99.90;;;;;;6245367;23;20391;-75
2021/11/15 07:47:35;;;;;;;2.97;2.63;;;13.80;99.90;;;;;;6245719;23;20323;-75
2021/11/15 07:50:03;;;;;;;3.15;2.70;;;13.90;99.90;;;;;;6218544;23;20004;-76
2021/11/15 07:52:29;;;;;;;28.90;17.90;;;14.00;99.90;;;;;;6245151;23;19996;-77
2021/11/15 07:55:01;;;;;;;4.43;3.63;;;14.00;99.90;;;;;;6218358;23;20000;-75
2021/11/15 07:57:27;;;;;;;3.53;2.75;;;14.10;99.90;;;;;;6245320;23;20006;-75
2021/11/15 07:59:53;;;;;;;3.65;3.35;;;14.10;99.90;;;;;;6218704;23;20008;-75
2021/11/15 08:02:19;;;;;;;3.53;3.22;;;14.10;99.90;;;;;;6245484;23;20054;-75
2021/11/15 08:04:46;;;;;;;2.67;2.47;;;14.20;99.90;;;;;;6245344;23;20014;-75
2021/11/15 08:07:12;;;;;;;2.92;2.63;;;14.20;99.90;;;;;;6218121;23;20654;-75
2021/11/15 08:09:40;;;;;;;3.97;3.58;;;14.20;99.90;;;;;;6245622;23;20387;-75
2021/11/15 08:12:08;;;;;;;3.15;2.63;;;14.20;99.90;;;;;;6218714;23;20010;-75
2021/11/15 08:14:35;;;;;;;5.15;3.00;;;14.10;99.90;;;;;;6245452;23;20004;-75
2021/11/15 08:17:02;;;;;;;3.38;3.10;;;14.10;99.90;;;;;;6245635;23;20328;-75
2021/11/15 08:19:28;;;;;;;3.40;3.10;;;14.10;99.90;;;;;;6247261;23;20083;-75
2021/11/15 08:21:54;;;;;;;2.50;2.30;;;14.20;99.90;;;;;;6220403;23;20070;-75
2021/11/15 08:24:25;;;;;;;2.80;2.60;;;14.20;99.90;;;;;;6247077;23;20044;-74
2021/11/15 08:27:01;;;;;;;2.60;2.37;;;14.20;99.90;;;;;;6247509;23;20007;-75
2021/11/15 08:29:30;;;;;;;3.13;2.92;;;14.30;99.90;;;;;;6220442;23;20031;-75
2021/11/15 08:31:58;;;;;;;3.38;2.67;;;14.30;99.90;;;;;;6220189;23;20387;-74
2021/11/15 08:34:40;;;;;;;2.65;2.45;;;14.40;99.90;;;;;;6247191;23;20003;-74
2021/11/15 08:37:06;;;;;;;2.65;2.45;;;14.40;99.90;;;;;;6240983;23;20069;-75
2021/11/15 08:39:33;;;;;;;5.63;2.70;;;14.30;99.90;;;;;;6246658;22;20394;-79
2021/11/15 08:42:03;;;;;;;2.53;2.33;;;14.40;99.90;;;;;;6247164;22;20049;-78
2021/11/15 08:44:29;;;;;;;2.65;2.42;;;14.50;99.90;;;;;;6246917;22;20331;-78
2021/11/15 08:46:56;;;;;;;2.88;2.50;;;14.50;99.90;;;;;;6246855;22;20003;-78
2021/11/15 08:49:29;;;;;;;2.67;2.47;;;14.60;99.90;;;;;;6246867;22;20590;-78
2021/11/15 08:52:00;;;;;;;1.95;1.85;;;14.60;99.90;;;;;;6246899;22;20006;-78
2021/11/15 08:54:26;;;;;;;1.98;1.88;;;14.60;99.90;;;;;;6246916;22;20003;-78
2021/11/15 08:56:59;;;;;;;3.15;2.28;;;14.70;99.90;;;;;;6246937;23;20000;-78
2021/11/15 08:59:25;;;;;;;5.45;2.17;;;14.70;99.90;;;;;;6246835;22;20009;-78
2021/11/15 09:01:51;;;;;;;2.17;2.08;;;14.70;99.90;;;;;;6246857;23;20335;-78
2021/11/15 09:04:18;;;;;;;2.00;1.90;;;14.70;99.90;;;;;;6246868;22;20004;-78
2021/11/15 09:06:44;;;;;;;2.40;2.20;;;14.70;99.90;;;;;;6242208;23;20008;-77
2021/11/15 09:09:15;;;;;;;1.90;1.80;;;14.70;99.90;;;;;;6243575;22;20004;-76
2021/11/15 09:11:52;;;;;;;1.95;1.85;;;14.60;99.90;;;;;;6243959;22;20478;-78
2021/11/15 09:14:19;;;;;;;2.03;1.92;;;14.60;99.90;;;;;;6243732;22;20427;-78
2021/11/15 09:16:50;;;;;;;2.35;2.15;;;14.60;99.90;;;;;;6241558;23;20008;-78
2021/11/15 09:19:17;;;;;;;2.30;2.10;;;14.60;99.90;;;;;;6243318;22;20000;-78
2021/11/15 09:21:44;;;;;;;2.72;2.53;;;14.60;99.90;;;;;;6243450;22;20313;-77
2021/11/15 09:24:10;;;;;;;2.50;2.10;;;14.60;99.90;;;;;;6243515;22;20492;-79
2021/11/15 09:26:36;;;;;;;2.63;2.42;;;14.50;99.90;;;;;;6241029;23;20011;-77
2021/11/15 09:29:07;;;;;;;2.65;2.45;;;14.50;99.90;;;;;;6242225;23;20004;-77
2021/11/15 09:31:34;;;;;;;2.83;2.63;;;14.50;99.90;;;;;;6243321;22;20000;-77
2021/11/15 09:34:00;;;;;;;2.88;2.67;;;14.50;99.90;;;;;;6243098;22;20084;-78
2021/11/15 09:36:26;;;;;;;2.08;1.98;;;14.50;99.90;;;;;;6242919;22;20031;-78
2021/11/15 09:38:54;;;;;;;2.70;2.53;;;14.40;99.90;;;;;;6243074;23;20084;-78
2021/11/15 09:41:21;;;;;;;2.58;2.38;;;14.40;99.90;;;;;;6241505;23;20030;-78
2021/11/15 09:43:47;;;;;;;2.67;2.47;;;14.40;99.90;;;;;;6243533;22;20004;-78
2021/11/15 09:46:15;;;;;;;2.85;2.60;;;14.40;99.90;;;;;;6241354;23;20348;-76
2021/11/15 09:48:59;;;;;;;2.78;2.35;;;14.40;99.90;;;;;;6242727;22;20458;-78
2021/11/15 09:51:24;;;;;;;4.05;2.38;;;14.40;99.90;;;;;;6243012;22;19999;-77
2021/11/15 09:53:50;;;;;;;2.88;2.67;;;14.30;99.90;;;;;;6243370;23;20000;-77
2021/11/15 09:56:18;;;;;;;3.22;2.85;;;14.30;99.90;;;;;;6241812;23;20078;-78
2021/11/15 09:58:44;;;;;;;3.28;3.00;;;14.30;99.90;;;;;;6245937;22;20336;-77
2021/11/15 10:01:10;;;;;;;3.30;3.00;;;14.30;99.90;;;;;;6244388;23;20015;-79
2021/11/15 10:03:35;;;;;;;3.08;2.80;;;14.30;99.90;;;;;;6244338;23;20004;-76
2021/11/15 10:06:04;;;;;;;3.65;3.33;;;14.30;99.90;;;;;;6245909;22;20000;-76
2021/11/15 10:08:56;;;;;;;3.22;2.95;;;14.30;99.90;;;;;;6244107;23;20317;-77
2021/11/15 10:11:27;;;;;;;3.60;3.30;;;14.30;99.90;;;;;;6245921;22;20006;-76
2021/11/15 10:13:54;;;;;;;3.95;2.97;;;14.30;99.90;;;;;;6245926;22;19993;-78
2021/11/15 10:16:25;;;;;;;3.05;2.75;;;14.30;99.90;;;;;;6246044;22;20004;-79
2021/11/15 10:18:52;;;;;;;3.42;3.10;;;14.30;99.90;;;;;;6245952;23;20440;-77
2021/11/15 10:21:29;;;;;;;3.47;3.17;;;14.30;99.90;;;;;;6245940;22;20000;-77
2021/11/15 10:24:08;;;;;;;9.50;3.08;;;14.40;99.90;;;;;;6243927;23;20376;-77
2021/11/15 10:26:47;;;;;;;5.07;2.95;;;14.30;99.90;;;;;;6244282;23;20003;-78
2021/11/15 10:29:22;;;;;;;3.25;2.97;;;14.40;99.90;;;;;;6245913;22;20135;-77
2021/11/15 10:31:55;;;;;;;3.13;2.85;;;14.30;99.90;;;;;;6245606;22;20003;-78
2021/11/15 10:34:33;;;;;;;3.50;3.20;;;14.30;99.90;;;;;;6245211;22;20004;-78
2021/11/15 10:37:14;;;;;;;2.78;2.58;;;14.30;99.90;;;;;;6245307;22;20343;-77
2021/11/15 10:40:10;;;;;;;3.63;3.30;;;14.30;99.90;;;;;;6245734;22;20079;-77
2021/11/15 10:42:37;;;;;;;2.92;2.72;;;14.30;99.90;;;;;;6246028;22;20007;-78
2021/11/15 10:45:18;;;;;;;3.20;2.88;;;14.30;99.90;;;;;;6245739;22;20466;-78
2021/11/15 10:48:03;;;;;;;3.83;2.78;;;14.40;99.90;;;;;;6244111;23;20086;-78
2021/11/15 10:50:51;;;;;;;4.00;3.35;;;14.40;99.90;;;;;;6245802;22;20074;-78
2021/11/15 10:53:54;;;;;;;3.35;3.05;;;14.50;99.90;;;;;;6246053;22;20301;-75
2021/11/15 10:56:35;;;;;;;3.15;2.85;;;14.50;99.90;;;;;;6245885;22;20087;-75
2021/11/15 10:59:01;;;;;;;3.45;3.05;;;14.50;99.90;;;;;;6244193;23;20510;-75
2021/11/15 11:01:32;;;;;;;3.55;3.17;;;14.50;99.90;;;;;;6244178;23;20008;-76
2021/11/15 11:04:14;;;;;;;3.42;3.13;;;14.40;99.90;;;;;;6245738;22;20027;-76
2021/11/15 11:06:55;;;;;;;;;;;14.30;99.90;;;;;;6244582;23;20015;-75
2021/11/15 11:09:39;;;;;;;3.42;3.13;;;14.30;99.90;;;;;;6245651;22;19926;-76
2021/11/15 11:12:25;;;;;;;5.82;2.75;;;14.30;99.90;;;;;;6245934;22;20023;-76
2021/11/15 11:14:52;;;;;;;3.58;3.28;;;14.30;99.90;;;;;;6243985;23;20493;-76
2021/11/15 11:17:17;;;;;;;3.63;3.05;;;14.30;99.90;;;;;;6244124;23;20383;-76
2021/11/15 11:20:37;;;;;;;4.05;3.75;;;14.40;99.90;;;;;;6245481;23;20003;-76
2021/11/15 11:23:24;;;;;;;3.72;3.42;;;14.50;99.90;;;;;;6242430;23;20008;-76
2021/11/15 11:25:53;;;;;;;4.05;3.63;;;14.60;99.90;;;;;;6245691;22;20004;-75
2021/11/15 11:28:36;;;;;;;3.50;3.17;;;14.60;99.90;;;;;;6245548;22;20007;-76
2021/11/15 11:31:06;;;;;;;3.97;3.55;;;14.60;99.90;;;;;;6245522;22;20003;-75
2021/11/15 11:33:33;;;;;;;7.63;3.38;;;14.50;99.90;;;;;;6245705;22;20486;-76
2021/11/15 11:36:00;;;;;;;3.65;3.40;;;14.50;99.90;;;;;;6243829;23;20001;-75
2021/11/15 11:38:28;;;;;;;5.05;3.78;;;14.50;99.90;;;;;;6245661;23;20027;-75
2021/11/15 11:40:54;;;;;;;3.78;3.30;;;14.50;99.90;;;;;;6245587;22;20420;-75
2021/11/15 11:43:21;;;;;;;4.32;3.92;;;14.50;99.90;;;;;;6245499;22;20011;-75
2021/11/15 11:45:47;;;;;;;3.63;3.33;;;14.50;99.90;;;;;;6243846;23;20010;-75
2021/11/15 11:48:15;;;;;;;3.78;3.30;;;14.50;99.90;;;;;;6245389;23;20050;-76
2021/11/15 11:50:50;;;;;;;4.82;4.20;;;14.50;99.90;;;;;;6245508;22;20023;-75
2021/11/15 11:56:17;;;;;;;4.47;3.40;;;14.50;99.90;;;;;;6244885;23;20020;-78
2021/11/15 11:58:46;;;;;;;;;;;14.50;99.90;;;;;;6247778;22;20041;-78
2021/11/15 12:01:21;;;;;;;4.85;3.03;;;14.50;99.90;;;;;;6247339;22;20270;-78
2021/11/15 12:04:17;;;;;;;3.53;3.22;;;14.60;99.90;;;;;;6247573;22;20032;-78
2021/11/15 12:06:44;;;;;;;3.95;3.38;;;14.60;99.90;;;;;;6215875;23;20008;-78
2021/11/15 12:09:11;;;;;;;3.55;3.22;;;14.60;99.90;;;;;;6245825;23;20012;-78
2021/11/15 12:12:06;;;;;;;4.55;4.10;;;14.70;99.90;;;;;;6239095;23;20004;-77
2021/11/15 12:14:36;;;;;;;4.32;3.92;;;14.70;99.90;;;;;;6235444;22;20054;-76
2021/11/15 12:17:05;;;;;;;3.83;3.38;;;14.70;99.90;;;;;;6240757;23;20004;-77
2021/11/15 12:19:55;;;;;;;3.58;3.28;;;14.70;99.90;;;;;;6240346;23;20011;-77
2021/11/15 12:22:25;;;;;;;3.92;3.55;;;14.70;99.90;;;;;;6241607;23;20435;-77
2021/11/15 12:25:11;;;;;;;4.38;3.97;;;14.80;99.90;;;;;;6243586;22;20475;-77
2021/11/15 12:27:46;;;;;;;4.38;3.95;;;14.80;99.90;;;;;;6243618;22;20087;-78
2021/11/15 12:30:21;;;;;;;3.50;3.20;;;14.80;99.90;;;;;;6243981;22;20004;-78
2021/11/15 12:33:16;;;;;;;3.60;3.30;;;14.80;99.90;;;;;;6247121;22;20492;-78
2021/11/15 12:36:09;;;;;;;4.18;3.78;;;14.80;99.90;;;;;;6246960;22;20050;-78
2021/11/15 12:38:56;;;;;;;3.85;3.45;;;14.90;99.90;;;;;;6247098;23;20032;-78
2021/11/15 12:41:32;;;;;;;4.03;3.67;;;14.80;99.90;;;;;;6245438;23;20031;-78
2021/11/15 12:44:01;;;;;;;4.22;3.83;;;14.80;99.90;;;;;;6247034;22;20000;-78
2021/11/15 12:46:44;;;;;;;4.15;3.75;;;14.90;99.90;;;;;;6247125;22;20050;-78
2021/11/15 12:49:17;;;;;;;3.55;3.25;;;14.80;99.90;;;;;;6245184;23;20012;-77
2021/11/15 12:52:04;;;;;;;4.32;3.92;;;14.90;99.90;;;;;;6245370;23;20331;-78
2021/11/15 12:54:30;;;;;;;4.22;3.72;;;15.00;99.90;;;;;;6246648;22;20395;-78
2021/11/15 12:57:01;;;;;;;4.65;4.05;;;14.90;99.90;;;;;;6245230;23;20004;-78
2021/11/15 12:59:27;;;;;;;4.82;4.10;;;15.00;99.90;;;;;;6245314;23;20004;-78
2021/11/15 13:01:54;;;;;;;4.82;4.43;;;15.00;99.90;;;;;;6245286;23;20015;-78